sensor_id;sensor_type;location;lat;lon;timestamp;temperature;humidity
11423;DHT22;5768;51.476;7.210;2023-05-23T00:02:50;15.70;85.50
11423;DHT22;5768;51.476;7.210;2023-05-23T00:07:55;15.90;85.00
11423;DHT22;5768;51.476;7.210;2023-05-23T00:12:57;15.80;85.80
11423;DHT22;5768;51.476;7.210;2023-05-23T00:18:00;15.90;86.90
11423;DHT22;5768;51.476;7.210;2023-05-23T00:23:04;15.90;84.70
11423;DHT22;5768;51.476;7.210;2023-05-23T00:28:07;15.90;85.10
11423;DHT22;5768;51.476;7.210;2023-05-23T00:33:10;15.80;85.40
11423;DHT22;5768;51.476;7.210;2023-05-23T00:38:15;15.70;85.80
11423;DHT22;5768;51.476;7.210;2023-05-23T00:43:18;15.70;85.20
11423;DHT22;5768;51.476;7.210;2023-05-23T00:48:22;15.50;84.90
11423;DHT22;5768;51.476;7.210;2023-05-23T00:53:27;15.60;83.80
11423;DHT22;5768;51.476;7.210;2023-05-23T00:58:30;15.50;82.90
11423;DHT22;5768;51.476;7.210;2023-05-23T01:03:32;15.50;82.80
11423;DHT22;5768;51.476;7.210;2023-05-23T01:08:36;15.50;81.30
11423;DHT22;5768;51.476;7.210;2023-05-23T01:13:42;15.50;81.50
11423;DHT22;5768;51.476;7.210;2023-05-23T01:18:55;15.50;35.80
11423;DHT22;5768;51.476;7.210;2023-05-23T01:24:20;15.50;82.10
11423;DHT22;5768;51.476;7.210;2023-05-23T01:29:40;15.70;81.50
11423;DHT22;5768;51.476;7.210;2023-05-23T01:34:46;15.80;33.70
11423;DHT22;5768;51.476;7.210;2023-05-23T01:39:49;15.60;31.80
11423;DHT22;5768;51.476;7.210;2023-05-23T01:44:54;15.90;35.70
11423;DHT22;5768;51.476;7.210;2023-05-23T01:49:59;15.80;32.90
11423;DHT22;5768;51.476;7.210;2023-05-23T01:55:04;16.00;29.80
11423;DHT22;5768;51.476;7.210;2023-05-23T02:00:11;15.90;29.70
11423;DHT22;5768;51.476;7.210;2023-05-23T02:05:22;16.00;35.40
11423;DHT22;5768;51.476;7.210;2023-05-23T02:10:25;16.10;30.90
11423;DHT22;5768;51.476;7.210;2023-05-23T02:15:29;16.00;37.50
11423;DHT22;5768;51.476;7.210;2023-05-23T02:20:31;16.10;35.80
11423;DHT22;5768;51.476;7.210;2023-05-23T02:25:34;15.80;81.60
11423;DHT22;5768;51.476;7.210;2023-05-23T02:30:38;16.00;81.40
11423;DHT22;5768;51.476;7.210;2023-05-23T02:35:40;15.90;38.50
11423;DHT22;5768;51.476;7.210;2023-05-23T02:40:43;15.90;39.00
11423;DHT22;5768;51.476;7.210;2023-05-23T02:45:47;15.60;84.10
11423;DHT22;5768;51.476;7.210;2023-05-23T02:50:49;15.60;84.00
11423;DHT22;5768;51.476;7.210;2023-05-23T02:55:52;15.60;85.60
11423;DHT22;5768;51.476;7.210;2023-05-23T03:00:56;15.70;85.50
11423;DHT22;5768;51.476;7.210;2023-05-23T03:05:58;15.90;84.90
11423;DHT22;5768;51.476;7.210;2023-05-23T03:11:01;15.60;83.80
11423;DHT22;5768;51.476;7.210;2023-05-23T03:16:05;15.50;84.70
11423;DHT22;5768;51.476;7.210;2023-05-23T03:21:08;15.40;85.50
11423;DHT22;5768;51.476;7.210;2023-05-23T03:26:10;15.50;83.50
11423;DHT22;5768;51.476;7.210;2023-05-23T03:31:14;15.40;81.90
11423;DHT22;5768;51.476;7.210;2023-05-23T03:36:16;15.30;82.40
11423;DHT22;5768;51.476;7.210;2023-05-23T03:41:19;15.30;83.60
11423;DHT22;5768;51.476;7.210;2023-05-23T03:46:22;15.50;82.30
11423;DHT22;5768;51.476;7.210;2023-05-23T03:51:25;15.40;81.90
11423;DHT22;5768;51.476;7.210;2023-05-23T03:56:29;15.50;39.50
11423;DHT22;5768;51.476;7.210;2023-05-23T04:01:32;15.20;83.20
11423;DHT22;5768;51.476;7.210;2023-05-23T04:06:35;15.30;83.10
11423;DHT22;5768;51.476;7.210;2023-05-23T04:11:38;15.30;83.40
11423;DHT22;5768;51.476;7.210;2023-05-23T04:16:42;15.50;83.20
11423;DHT22;5768;51.476;7.210;2023-05-23T04:21:45;15.50;82.50
11423;DHT22;5768;51.476;7.210;2023-05-23T04:26:47;15.40;83.50
11423;DHT22;5768;51.476;7.210;2023-05-23T04:31:51;15.50;84.10
11423;DHT22;5768;51.476;7.210;2023-05-23T04:36:54;15.50;83.90
11423;DHT22;5768;51.476;7.210;2023-05-23T04:41:57;15.50;84.20
11423;DHT22;5768;51.476;7.210;2023-05-23T04:47:01;15.50;83.60
11423;DHT22;5768;51.476;7.210;2023-05-23T04:52:04;15.50;83.50
11423;DHT22;5768;51.476;7.210;2023-05-23T04:57:06;15.40;84.40
11423;DHT22;5768;51.476;7.210;2023-05-23T05:02:10;15.30;84.50
11423;DHT22;5768;51.476;7.210;2023-05-23T05:07:12;15.20;84.90
11423;DHT22;5768;51.476;7.210;2023-05-23T05:12:36;15.30;85.10
11423;DHT22;5768;51.476;7.210;2023-05-23T05:17:40;15.20;85.60
11423;DHT22;5768;51.476;7.210;2023-05-23T05:22:43;15.50;84.20
11423;DHT22;5768;51.476;7.210;2023-05-23T05:27:46;15.60;82.40
11423;DHT22;5768;51.476;7.210;2023-05-23T05:32:53;15.40;84.10
11423;DHT22;5768;51.476;7.210;2023-05-23T05:37:57;15.00;87.00
11423;DHT22;5768;51.476;7.210;2023-05-23T05:43:00;14.80;88.30
11423;DHT22;5768;51.476;7.210;2023-05-23T05:48:04;15.00;87.80
11423;DHT22;5768;51.476;7.210;2023-05-23T05:53:07;15.00;87.30
11423;DHT22;5768;51.476;7.210;2023-05-23T05:58:10;15.10;87.30
11423;DHT22;5768;51.476;7.210;2023-05-23T06:03:14;15.20;86.30
11423;DHT22;5768;51.476;7.210;2023-05-23T06:08:17;15.20;85.00
11423;DHT22;5768;51.476;7.210;2023-05-23T06:13:20;15.10;84.20
11423;DHT22;5768;51.476;7.210;2023-05-23T06:18:24;15.00;85.60
11423;DHT22;5768;51.476;7.210;2023-05-23T06:23:27;15.00;85.10
11423;DHT22;5768;51.476;7.210;2023-05-23T06:28:31;15.30;83.40
11423;DHT22;5768;51.476;7.210;2023-05-23T06:33:35;15.40;81.90
11423;DHT22;5768;51.476;7.210;2023-05-23T06:38:37;15.40;81.90
11423;DHT22;5768;51.476;7.210;2023-05-23T06:43:39;15.50;34.20
11423;DHT22;5768;51.476;7.210;2023-05-23T06:48:44;15.40;29.90
11423;DHT22;5768;51.476;7.210;2023-05-23T06:53:46;15.40;29.50
11423;DHT22;5768;51.476;7.210;2023-05-23T06:58:49;15.40;29.50
11423;DHT22;5768;51.476;7.210;2023-05-23T07:03:53;15.40;29.30
11423;DHT22;5768;51.476;7.210;2023-05-23T07:08:55;15.20;29.30
11423;DHT22;5768;51.476;7.210;2023-05-23T07:13:58;15.40;29.00
11423;DHT22;5768;51.476;7.210;2023-05-23T07:19:02;15.30;28.80
11423;DHT22;5768;51.476;7.210;2023-05-23T07:24:07;15.30;28.90
11423;DHT22;5768;51.476;7.210;2023-05-23T07:29:10;15.30;28.90
11423;DHT22;5768;51.476;7.210;2023-05-23T07:34:14;15.30;28.70
11423;DHT22;5768;51.476;7.210;2023-05-23T07:39:17;15.70;27.80
11423;DHT22;5768;51.476;7.210;2023-05-23T07:44:24;15.80;27.40
11423;DHT22;5768;51.476;7.210;2023-05-23T07:49:28;15.90;26.60
11423;DHT22;5768;51.476;7.210;2023-05-23T07:54:31;16.00;26.50
11423;DHT22;5768;51.476;7.210;2023-05-23T07:59:34;15.80;26.50
11423;DHT22;5768;51.476;7.210;2023-05-23T08:04:38;15.90;26.90
11423;DHT22;5768;51.476;7.210;2023-05-23T08:09:49;15.70;27.10
11423;DHT22;5768;51.476;7.210;2023-05-23T08:14:51;15.50;27.40
11423;DHT22;5768;51.476;7.210;2023-05-23T08:19:55;15.20;27.70
11423;DHT22;5768;51.476;7.210;2023-05-23T08:24:59;15.50;27.00
11423;DHT22;5768;51.476;7.210;2023-05-23T08:30:03;16.00;26.30
11423;DHT22;5768;51.476;7.210;2023-05-23T08:35:09;15.90;26.40
11423;DHT22;5768;51.476;7.210;2023-05-23T08:40:14;16.00;25.80
11423;DHT22;5768;51.476;7.210;2023-05-23T08:45:20;16.00;25.90
11423;DHT22;5768;51.476;7.210;2023-05-23T08:50:25;15.40;26.40
11423;DHT22;5768;51.476;7.210;2023-05-23T08:55:30;15.40;27.80
11423;DHT22;5768;51.476;7.210;2023-05-23T09:00:33;15.00;29.60
11423;DHT22;5768;51.476;7.210;2023-05-23T09:05:37;14.60;37.40
11423;DHT22;5768;51.476;7.210;2023-05-23T09:10:40;15.00;30.60
11423;DHT22;5768;51.476;7.210;2023-05-23T09:15:55;14.30;29.20
11423;DHT22;5768;51.476;7.210;2023-05-23T09:21:29;14.80;28.70
11423;DHT22;5768;51.476;7.210;2023-05-23T09:26:45;15.00;27.20
11423;DHT22;5768;51.476;7.210;2023-05-23T09:31:48;15.10;26.60
11423;DHT22;5768;51.476;7.210;2023-05-23T09:36:54;15.30;26.30
11423;DHT22;5768;51.476;7.210;2023-05-23T09:41:58;15.60;24.20
11423;DHT22;5768;51.476;7.210;2023-05-23T09:47:05;16.20;23.40
11423;DHT22;5768;51.476;7.210;2023-05-23T09:52:09;16.10;22.70
11423;DHT22;5768;51.476;7.210;2023-05-23T10:02:40;15.70;23.70
11423;DHT22;5768;51.476;7.210;2023-05-23T10:08:04;15.20;23.70
11423;DHT22;5768;51.476;7.210;2023-05-23T10:13:10;15.10;24.10
11423;DHT22;5768;51.476;7.210;2023-05-23T10:18:17;14.70;24.90
11423;DHT22;5768;51.476;7.210;2023-05-23T10:23:26;14.80;24.30
11423;DHT22;5768;51.476;7.210;2023-05-23T10:28:29;14.40;25.30
11423;DHT22;5768;51.476;7.210;2023-05-23T10:33:37;13.90;25.80
11423;DHT22;5768;51.476;7.210;2023-05-23T10:38:49;13.90;25.80
11423;DHT22;5768;51.476;7.210;2023-05-23T10:44:03;14.10;24.10
11423;DHT22;5768;51.476;7.210;2023-05-23T10:49:10;14.80;22.40
11423;DHT22;5768;51.476;7.210;2023-05-23T10:54:14;15.30;21.00
11423;DHT22;5768;51.476;7.210;2023-05-23T10:59:19;16.60;20.00
11423;DHT22;5768;51.476;7.210;2023-05-23T11:04:26;17.40;19.00
11423;DHT22;5768;51.476;7.210;2023-05-23T11:09:31;17.40;18.60
11423;DHT22;5768;51.476;7.210;2023-05-23T11:14:51;17.20;18.80
11423;DHT22;5768;51.476;7.210;2023-05-23T11:19:55;17.20;18.80
11423;DHT22;5768;51.476;7.210;2023-05-23T11:25:06;17.50;18.50
11423;DHT22;5768;51.476;7.210;2023-05-23T11:30:11;17.50;18.50
11423;DHT22;5768;51.476;7.210;2023-05-23T11:35:16;17.40;18.60
11423;DHT22;5768;51.476;7.210;2023-05-23T11:40:28;16.50;19.00
11423;DHT22;5768;51.476;7.210;2023-05-23T11:45:32;16.60;19.30
11423;DHT22;5768;51.476;7.210;2023-05-23T11:50:43;16.90;19.00
11423;DHT22;5768;51.476;7.210;2023-05-23T11:55:52;17.80;18.10
11423;DHT22;5768;51.476;7.210;2023-05-23T12:01:01;18.30;17.70
11423;DHT22;5768;51.476;7.210;2023-05-23T12:06:04;17.70;17.70
11423;DHT22;5768;51.476;7.210;2023-05-23T12:11:08;17.40;18.00
11423;DHT22;5768;51.476;7.210;2023-05-23T12:16:13;17.80;18.00
11423;DHT22;5768;51.476;7.210;2023-05-23T12:21:15;17.70;18.00
11423;DHT22;5768;51.476;7.210;2023-05-23T12:26:19;18.90;17.60
11423;DHT22;5768;51.476;7.210;2023-05-23T12:31:23;19.80;16.90
11423;DHT22;5768;51.476;7.210;2023-05-23T12:36:28;20.60;16.00
11423;DHT22;5768;51.476;7.210;2023-05-23T12:41:34;21.60;15.40
11423;DHT22;5768;51.476;7.210;2023-05-23T12:46:36;22.10;15.00
11423;DHT22;5768;51.476;7.210;2023-05-23T12:51:39;22.00;14.80
11423;DHT22;5768;51.476;7.210;2023-05-23T12:56:42;21.40;15.00
11423;DHT22;5768;51.476;7.210;2023-05-23T13:01:45;21.70;14.90
11423;DHT22;5768;51.476;7.210;2023-05-23T13:06:47;21.40;14.70
11423;DHT22;5768;51.476;7.210;2023-05-23T13:11:50;21.00;15.00
11423;DHT22;5768;51.476;7.210;2023-05-23T13:16:54;21.60;14.40
11423;DHT22;5768;51.476;7.210;2023-05-23T13:21:57;21.50;14.60
11423;DHT22;5768;51.476;7.210;2023-05-23T13:27:01;25.80;13.30
11423;DHT22;5768;51.476;7.210;2023-05-23T13:32:03;27.40;12.90
11423;DHT22;5768;51.476;7.210;2023-05-23T13:37:06;26.10;13.10
11423;DHT22;5768;51.476;7.210;2023-05-23T13:42:10;24.60;13.60
11423;DHT22;5768;51.476;7.210;2023-05-23T13:47:13;24.20;13.90
11423;DHT22;5768;51.476;7.210;2023-05-23T13:52:16;24.30;13.70
11423;DHT22;5768;51.476;7.210;2023-05-23T13:57:20;24.20;13.40
11423;DHT22;5768;51.476;7.210;2023-05-23T14:02:22;25.20;13.10
11423;DHT22;5768;51.476;7.210;2023-05-23T14:07:24;24.90;13.20
11423;DHT22;5768;51.476;7.210;2023-05-23T14:12:28;24.10;13.30
11423;DHT22;5768;51.476;7.210;2023-05-23T14:17:30;23.90;13.40
11423;DHT22;5768;51.476;7.210;2023-05-23T14:22:32;25.50;13.00
11423;DHT22;5768;51.476;7.210;2023-05-23T14:27:39;23.20;13.40
11423;DHT22;5768;51.476;7.210;2023-05-23T14:32:41;23.30;13.40
11423;DHT22;5768;51.476;7.210;2023-05-23T14:37:44;23.30;13.40
11423;DHT22;5768;51.476;7.210;2023-05-23T14:42:48;24.10;13.20
11423;DHT22;5768;51.476;7.210;2023-05-23T14:47:51;22.80;13.60
11423;DHT22;5768;51.476;7.210;2023-05-23T14:52:53;26.30;12.30
11423;DHT22;5768;51.476;7.210;2023-05-23T14:57:56;25.20;12.40
11423;DHT22;5768;51.476;7.210;2023-05-23T15:02:59;26.20;12.20
11423;DHT22;5768;51.476;7.210;2023-05-23T15:08:01;24.20;12.60
11423;DHT22;5768;51.476;7.210;2023-05-23T15:13:05;23.10;12.80
11423;DHT22;5768;51.476;7.210;2023-05-23T15:18:08;22.20;13.10
11423;DHT22;5768;51.476;7.210;2023-05-23T15:23:11;23.10;12.90
11423;DHT22;5768;51.476;7.210;2023-05-23T15:28:15;23.80;12.50
11423;DHT22;5768;51.476;7.210;2023-05-23T15:33:17;23.20;12.70
11423;DHT22;5768;51.476;7.210;2023-05-23T15:38:20;22.60;12.80
11423;DHT22;5768;51.476;7.210;2023-05-23T15:43:24;21.30;13.10
11423;DHT22;5768;51.476;7.210;2023-05-23T15:48:26;21.10;13.30
11423;DHT22;5768;51.476;7.210;2023-05-23T15:53:29;21.60;13.20
11423;DHT22;5768;51.476;7.210;2023-05-23T15:58:33;22.00;14.30
11423;DHT22;5768;51.476;7.210;2023-05-23T16:03:35;22.10;14.30
11423;DHT22;5768;51.476;7.210;2023-05-23T16:08:38;22.10;13.80
11423;DHT22;5768;51.476;7.210;2023-05-23T16:13:41;22.10;14.20
11423;DHT22;5768;51.476;7.210;2023-05-23T16:18:44;22.40;13.60
11423;DHT22;5768;51.476;7.210;2023-05-23T16:23:46;24.20;13.10
11423;DHT22;5768;51.476;7.210;2023-05-23T16:28:50;28.00;12.70
11423;DHT22;5768;51.476;7.210;2023-05-23T16:38:56;29.70;12.40
11423;DHT22;5768;51.476;7.210;2023-05-23T16:44:00;26.30;13.00
11423;DHT22;5768;51.476;7.210;2023-05-23T16:49:02;28.90;12.60
11423;DHT22;5768;51.476;7.210;2023-05-23T16:54:05;29.40;11.00
11423;DHT22;5768;51.476;7.210;2023-05-23T16:59:09;25.30;11.90
11423;DHT22;5768;51.476;7.210;2023-05-23T17:04:11;23.40;12.40
11423;DHT22;5768;51.476;7.210;2023-05-23T17:09:14;22.20;12.50
11423;DHT22;5768;51.476;7.210;2023-05-23T17:14:18;21.40;12.40
11423;DHT22;5768;51.476;7.210;2023-05-23T17:19:21;21.50;12.50
11423;DHT22;5768;51.476;7.210;2023-05-23T17:24:23;26.70;11.70
11423;DHT22;5768;51.476;7.210;2023-05-23T17:29:26;28.20;11.80
11423;DHT22;5768;51.476;7.210;2023-05-23T17:34:29;23.80;12.10
11423;DHT22;5768;51.476;7.210;2023-05-23T17:39:31;24.70;12.10
11423;DHT22;5768;51.476;7.210;2023-05-23T17:44:34;26.80;11.70
11423;DHT22;5768;51.476;7.210;2023-05-23T17:49:37;27.30;11.50
11423;DHT22;5768;51.476;7.210;2023-05-23T17:54:41;28.50;11.30
11423;DHT22;5768;51.476;7.210;2023-05-23T17:59:45;29.30;11.20
11423;DHT22;5768;51.476;7.210;2023-05-23T18:04:47;29.30;11.20
11423;DHT22;5768;51.476;7.210;2023-05-23T18:09:50;28.20;11.40
11423;DHT22;5768;51.476;7.210;2023-05-23T18:14:53;27.60;11.50
11423;DHT22;5768;51.476;7.210;2023-05-23T18:19:55;26.70;11.70
11423;DHT22;5768;51.476;7.210;2023-05-23T18:24:57;27.10;12.00
11423;DHT22;5768;51.476;7.210;2023-05-23T18:30:01;26.00;12.00
11423;DHT22;5768;51.476;7.210;2023-05-23T18:35:04;23.90;12.50
11423;DHT22;5768;51.476;7.210;2023-05-23T18:40:08;22.90;12.70
11423;DHT22;5768;51.476;7.210;2023-05-23T18:45:12;22.70;12.80
11423;DHT22;5768;51.476;7.210;2023-05-23T18:50:14;22.40;12.60
11423;DHT22;5768;51.476;7.210;2023-05-23T18:55:17;21.60;12.60
11423;DHT22;5768;51.476;7.210;2023-05-23T19:00:21;20.40;12.90
11423;DHT22;5768;51.476;7.210;2023-05-23T19:05:24;19.70;13.20
11423;DHT22;5768;51.476;7.210;2023-05-23T19:10:26;18.80;13.40
11423;DHT22;5768;51.476;7.210;2023-05-23T19:15:30;18.00;13.60
11423;DHT22;5768;51.476;7.210;2023-05-23T19:20:32;17.70;13.90
11423;DHT22;5768;51.476;7.210;2023-05-23T19:25:34;17.30;14.00
11423;DHT22;5768;51.476;7.210;2023-05-23T19:30:38;17.10;14.20
11423;DHT22;5768;51.476;7.210;2023-05-23T19:35:41;16.70;14.40
11423;DHT22;5768;51.476;7.210;2023-05-23T19:40:45;16.60;14.60
11423;DHT22;5768;51.476;7.210;2023-05-23T19:45:48;16.20;14.60
11423;DHT22;5768;51.476;7.210;2023-05-23T19:50:51;15.90;15.30
11423;DHT22;5768;51.476;7.210;2023-05-23T19:55:53;15.40;14.40
11423;DHT22;5768;51.476;7.210;2023-05-23T20:00:57;15.30;14.70
11423;DHT22;5768;51.476;7.210;2023-05-23T20:05:59;14.90;15.60
11423;DHT22;5768;51.476;7.210;2023-05-23T20:11:01;14.90;15.60
11423;DHT22;5768;51.476;7.210;2023-05-23T20:16:05;14.50;15.90
11423;DHT22;5768;51.476;7.210;2023-05-23T20:21:08;14.50;16.60
11423;DHT22;5768;51.476;7.210;2023-05-23T20:26:11;13.90;16.40
11423;DHT22;5768;51.476;7.210;2023-05-23T20:31:14;13.90;16.60
11423;DHT22;5768;51.476;7.210;2023-05-23T20:36:17;14.10;16.30
11423;DHT22;5768;51.476;7.210;2023-05-23T20:41:20;14.00;16.40
11423;DHT22;5768;51.476;7.210;2023-05-23T20:46:24;13.80;16.40
11423;DHT22;5768;51.476;7.210;2023-05-23T20:51:27;13.70;16.70
11423;DHT22;5768;51.476;7.210;2023-05-23T20:56:29;13.20;16.90
11423;DHT22;5768;51.476;7.210;2023-05-23T21:01:33;13.40;17.10
11423;DHT22;5768;51.476;7.210;2023-05-23T21:06:36;13.30;17.20
11423;DHT22;5768;51.476;7.210;2023-05-23T21:11:39;13.20;17.30
11423;DHT22;5768;51.476;7.210;2023-05-23T21:16:43;13.10;17.30
11423;DHT22;5768;51.476;7.210;2023-05-23T21:21:45;13.10;16.80
11423;DHT22;5768;51.476;7.210;2023-05-23T21:26:47;13.00;16.80
11423;DHT22;5768;51.476;7.210;2023-05-23T21:31:51;12.90;16.90
11423;DHT22;5768;51.476;7.210;2023-05-23T21:36:53;12.70;17.10
11423;DHT22;5768;51.476;7.210;2023-05-23T21:41:55;12.70;17.30
11423;DHT22;5768;51.476;7.210;2023-05-23T21:46:59;12.60;17.50
11423;DHT22;5768;51.476;7.210;2023-05-23T21:52:02;12.50;17.40
11423;DHT22;5768;51.476;7.210;2023-05-23T21:57:04;12.30;17.60
11423;DHT22;5768;51.476;7.210;2023-05-23T22:07:13;12.10;17.50
11423;DHT22;5768;51.476;7.210;2023-05-23T22:12:15;12.10;17.20
11423;DHT22;5768;51.476;7.210;2023-05-23T22:17:19;12.00;17.40
11423;DHT22;5768;51.476;7.210;2023-05-23T22:27:25;12.10;17.60
11423;DHT22;5768;51.476;7.210;2023-05-23T22:32:29;12.00;17.60
11423;DHT22;5768;51.476;7.210;2023-05-23T22:37:32;12.00;17.40
11423;DHT22;5768;51.476;7.210;2023-05-23T22:42:34;11.90;17.60
11423;DHT22;5768;51.476;7.210;2023-05-23T22:47:40;11.80;17.50
11423;DHT22;5768;51.476;7.210;2023-05-23T22:52:42;11.80;17.50
11423;DHT22;5768;51.476;7.210;2023-05-23T22:57:44;11.80;17.70
11423;DHT22;5768;51.476;7.210;2023-05-23T23:02:48;11.60;18.10
11423;DHT22;5768;51.476;7.210;2023-05-23T23:07:50;11.50;17.80
11423;DHT22;5768;51.476;7.210;2023-05-23T23:12:52;11.50;18.20
11423;DHT22;5768;51.476;7.210;2023-05-23T23:17:56;11.40;18.30
11423;DHT22;5768;51.476;7.210;2023-05-23T23:22:59;11.30;16.80
11423;DHT22;5768;51.476;7.210;2023-05-23T23:28:01;11.30;16.10
11423;DHT22;5768;51.476;7.210;2023-05-23T23:33:05;11.10;15.00
11423;DHT22;5768;51.476;7.210;2023-05-23T23:38:08;11.30;15.40
11423;DHT22;5768;51.476;7.210;2023-05-23T23:43:11;11.10;15.50
11423;DHT22;5768;51.476;7.210;2023-05-23T23:48:15;11.10;15.50
11423;DHT22;5768;51.476;7.210;2023-05-23T23:53:17;11.10;15.60
11423;DHT22;5768;51.476;7.210;2023-05-23T23:58:21;11.10;15.60
